Elandra Spruce — V7JM5 — position and weather

sailwx.info

Track history (hours):
 
Tides and Currents Weather Stations Pressure Air Temp Water Temp Dewpoint Dewpoint Depression Visibility Wind Speed Wind Dir Waves Ship Positions

Elandra Spruce

Last reported at 2017-Jan-20 13:30 UTC. Time now 2017-Feb-26 07:39 UTC.
Position N 25°41' W 079°28'.
Warning: this ship's position is 36 days out of date.

Length 183 m; draft 7.8 m.

Type: Tanker. MMSI: 538006719.

Date/timePositionNaut miles runAvg speedWind from/ knotsBaromVisibWave heightAir tempDewpointWater temp
2017-Jan-20 13:30N 25°41' W 079°28'3110.7
2017-Jan-20 10:33N 26°12' W 079°22'  
2017-Jan-16 12:14N 41°14' W 071°58'1015.2
2017-Jan-16 11:33N 41°13' W 072°12'1515.4
2017-Jan-16 10:33N 41°10' W 072°32'1514.6
2017-Jan-16 09:31N 41°12' W 072°52'4 0.1
2017-Jan-14 10:26N 41°11' W 072°47'1112.5
2017-Jan-14 09:33N 41°10' W 072°33'1211.6
2017-Jan-14 08:34N 41°12' W 072°18'1111.0
2017-Jan-14 07:34N 41°14' W 072°04'110 4.7
2017-Jan-13 08:08N 42°17' W 070°03'813.5
2017-Jan-13 07:33N 42°18' W 070°13'1312.9
2017-Jan-13 06:33N 42°18' W 070°31'1110.5
2017-Jan-13 05:33N 42°21' W 070°45'9 9.4
2017-Jan-13 04:34N 42°20' W 070°57'1 0.6
2017-Jan-13 03:33N 42°20' W 070°58'0 0.1
2017-Jan-13 02:33N 42°20' W 070°58'0 0.1
2017-Jan-13 01:33N 42°20' W 070°58'0 0.0
2017-Jan-13 00:33N 42°20' W 070°58'2 2.3
2017-Jan-12 23:33N 42°21' W 071°01'2 0.1
2017-Jan-12 01:34N 42°23' W 071°02'3 2.7
2017-Jan-12 00:33N 42°20' W 071°01'9 9.3
2017-Jan-11 23:34N 42°24' W 070°49'2 1.5
2017-Jan-11 22:33N 42°25' W 070°47'0 0.1
2017-Jan-11 21:33N 42°25' W 070°47'0 0.0
2017-Jan-11 20:33N 42°25' W 070°47'0 0.0
2017-Jan-11 19:33N 42°25' W 070°47'0 0.0
2017-Jan-11 18:33N 42°25' W 070°47'0 0.0
2017-Jan-11 17:33N 42°25' W 070°47'3 2.9
2017-Jan-11 16:34N 42°24' W 070°50'7 6.4
2017-Jan-11 15:32N 42°20' W 070°58'0 0.1
2017-Jan-11 14:32N 42°20' W 070°58'0 0.0
2017-Jan-11 13:32N 42°20' W 070°58'0 0.2
2017-Jan-11 12:34N 42°20' W 070°58'6 5.9
2017-Jan-11 11:34N 42°24' W 070°52'5 5.3
2017-Jan-11 10:34N 42°22' W 070°45'1312.5
2017-Jan-11 09:34N 42°21' W 070°28'1312.9
2017-Jan-11 08:34N 42°20' W 070°10'1110.6
2017-Jan-11 07:34N 42°16' W 069°57'  
Track history (hours):
 
Tides and Currents Weather Stations Pressure Air Temp Water Temp Dewpoint Dewpoint Depression Visibility Wind Speed Wind Dir Waves Ship Positions

Elandra Spruce

Last reported at 2017-Jan-20 13:30 UTC. Time now 2017-Feb-26 07:39 UTC.
Position N 25°41' W 079°28'.
Warning: this ship's position is 36 days out of date.

Length 183 m; draft 7.8 m.

Type: Tanker. MMSI: 538006719.

Date/timePositionNaut miles runAvg speedWind from/ knotsBaromVisibWave heightAir tempDewpointWater temp
2017-Jan-20 13:30N 25°41' W 079°28'3110.7
2017-Jan-20 10:33N 26°12' W 079°22'  
2017-Jan-16 12:14N 41°14' W 071°58'1015.2
2017-Jan-16 11:33N 41°13' W 072°12'1515.4
2017-Jan-16 10:33N 41°10' W 072°32'1514.6
2017-Jan-16 09:31N 41°12' W 072°52'4 0.1
2017-Jan-14 10:26N 41°11' W 072°47'1112.5
2017-Jan-14 09:33N 41°10' W 072°33'1211.6
2017-Jan-14 08:34N 41°12' W 072°18'1111.0
2017-Jan-14 07:34N 41°14' W 072°04'110 4.7
2017-Jan-13 08:08N 42°17' W 070°03'813.5
2017-Jan-13 07:33N 42°18' W 070°13'1312.9
2017-Jan-13 06:33N 42°18' W 070°31'1110.5
2017-Jan-13 05:33N 42°21' W 070°45'9 9.4
2017-Jan-13 04:34N 42°20' W 070°57'1 0.6
2017-Jan-13 03:33N 42°20' W 070°58'0 0.1
2017-Jan-13 02:33N 42°20' W 070°58'0 0.1
2017-Jan-13 01:33N 42°20' W 070°58'0 0.0
2017-Jan-13 00:33N 42°20' W 070°58'2 2.3
2017-Jan-12 23:33N 42°21' W 071°01'2 0.1
2017-Jan-12 01:34N 42°23' W 071°02'3 2.7
2017-Jan-12 00:33N 42°20' W 071°01'9 9.3
2017-Jan-11 23:34N 42°24' W 070°49'2 1.5
2017-Jan-11 22:33N 42°25' W 070°47'0 0.1
2017-Jan-11 21:33N 42°25' W 070°47'0 0.0
2017-Jan-11 20:33N 42°25' W 070°47'0 0.0
2017-Jan-11 19:33N 42°25' W 070°47'0 0.0
2017-Jan-11 18:33N 42°25' W 070°47'0 0.0
2017-Jan-11 17:33N 42°25' W 070°47'3 2.9
2017-Jan-11 16:34N 42°24' W 070°50'7 6.4
2017-Jan-11 15:32N 42°20' W 070°58'0 0.1
2017-Jan-11 14:32N 42°20' W 070°58'0 0.0
2017-Jan-11 13:32N 42°20' W 070°58'0 0.2
2017-Jan-11 12:34N 42°20' W 070°58'6 5.9
2017-Jan-11 11:34N 42°24' W 070°52'5 5.3
2017-Jan-11 10:34N 42°22' W 070°45'1312.5
2017-Jan-11 09:34N 42°21' W 070°28'1312.9
2017-Jan-11 08:34N 42°20' W 070°10'1110.6
2017-Jan-11 07:34N 42°16' W 069°57'  

Dump ship's entire track history